Time;durP1;ratioP1;P1;durP2;ratioP2;P2;SDS_P1;SDS_P2;PMS_P1;PMS_P2;Temp;Humidity;BMP_temperature;BMP_pressure;BME280_temperature;BME280_humidity;BME280_pressure;Samples;Min_cycle;Max_cycle;Signal;HPM_P1;HPM_P2
2022/11/30 00:01:25;;;;;;;8.80;5.90;;;;;;;4.84;79.52;94760.59;4176081;28;20136;-53
2022/11/30 00:03:27;;;;;;;8.82;5.75;;;;;;;4.86;79.54;94774.28;4177005;28;20114;-57
2022/11/30 00:05:29;;;;;;;10.93;6.07;;;;;;;4.83;79.13;94767.56;4167707;28;20057;-51
2022/11/30 00:07:32;;;;;;;9.35;6.10;;;;;;;4.77;78.88;94775.00;4168494;28;20355;-53
2022/11/30 00:09:34;;;;;;;10.15;6.75;;;;;;;4.63;79.56;94774.34;4157369;28;20046;-55
2022/11/30 00:11:36;;;;;;;9.07;6.13;;;;;;;4.58;80.20;94775.63;4144321;28;20077;-57
2022/11/30 00:13:38;;;;;;;9.65;5.80;;;;;;;4.57;80.02;94780.00;4169616;28;20434;-56
2022/11/30 00:15:40;;;;;;;8.98;5.93;;;;;;;4.50;80.16;94774.47;4164552;28;20057;-53
2022/11/30 00:17:45;;;;;;;11.00;6.40;;;;;;;4.49;80.61;94778.00;4157521;28;20436;-54
2022/11/30 00:19:47;;;;;;;9.73;6.68;;;;;;;4.46;79.82;94778.25;4169593;28;20048;-54
2022/11/30 00:21:49;;;;;;;9.60;6.15;;;;;;;4.42;80.27;94782.03;4151785;28;20053;-53
2022/11/30 00:23:51;;;;;;;8.10;5.75;;;;;;;4.31;80.63;94782.84;4156818;28;20143;-54
2022/11/30 00:25:53;;;;;;;9.50;6.78;;;;;;;4.23;81.04;94792.19;4156442;28;20053;-52
2022/11/30 00:27:59;;;;;;;9.13;6.10;;;;;;;4.14;81.82;94787.72;4144928;28;20067;-54
2022/11/30 00:30:00;;;;;;;8.75;6.65;;;;;;;3.88;82.54;94782.75;4144994;28;20447;-55
2022/11/30 00:32:02;;;;;;;10.30;7.22;;;;;;;3.70;83.55;94787.56;4158499;28;20049;-54
2022/11/30 00:34:04;;;;;;;12.52;7.53;;;;;;;3.71;83.46;94786.59;4155946;28;20049;-55
2022/11/30 00:36:10;;;;;;;11.93;7.18;;;;;;;3.83;83.64;94790.88;4162479;28;20061;-55
2022/11/30 00:38:11;;;;;;;10.38;6.90;;;;;;;3.96;83.76;94790.75;4163712;28;20045;-54
2022/11/30 00:40:13;;;;;;;12.98;6.72;;;;;;;4.15;84.37;94781.56;4170828;28;20102;-54
2022/11/30 00:42:15;;;;;;;8.98;6.18;;;;;;;4.17;83.29;94783.09;4170257;28;20421;-54
2022/11/30 00:44:16;;;;;;;9.57;6.38;;;;;;;4.16;82.86;94781.44;4175673;28;20064;-54
2022/11/30 00:46:18;;;;;;;9.02;6.00;;;;;;;4.14;82.75;94783.34;4177255;28;20081;-55
2022/11/30 00:48:20;;;;;;;8.57;6.30;;;;;;;4.24;83.10;94776.50;4173222;28;20084;-54
2022/11/30 00:50:22;;;;;;;7.05;5.15;;;;;;;4.21;82.92;94770.72;4169889;28;20049;-53
2022/11/30 00:52:23;;;;;;;7.95;5.85;;;;;;;4.22;82.78;94782.75;4173483;28;20719;-56
2022/11/30 00:54:25;;;;;;;8.10;5.95;;;;;;;4.31;83.12;94772.47;4174923;28;20102;-54
2022/11/30 00:56:27;;;;;;;9.73;6.25;;;;;;;4.27;82.38;94778.03;4176101;28;20103;-54
2022/11/30 00:58:28;;;;;;;11.20;6.13;;;;;;;4.17;82.83;94777.09;4174250;28;20457;-57
2022/11/30 01:00:30;;;;;;;8.30;5.55;;;;;;;4.20;83.26;94777.69;4171889;28;20052;-58
2022/11/30 01:02:32;;;;;;;7.75;5.18;;;;;;;4.20;83.06;94777.69;4175602;28;20045;-55
2022/11/30 01:04:33;;;;;;;6.72;5.50;;;;;;;4.23;82.96;94767.06;4174800;28;20119;-54
2022/11/30 01:06:36;;;;;;;7.93;5.53;;;;;;;4.35;83.41;94773.09;4175712;28;20151;-55
2022/11/30 01:08:38;;;;;;;9.23;6.28;;;;;;;4.38;83.21;94772.81;4170351;28;20479;-57
2022/11/30 01:10:42;;;;;;;8.63;5.25;;;;;;;4.35;82.34;94770.50;4169100;28;20520;-53
2022/11/30 01:12:43;;;;;;;8.27;5.80;;;;;;;4.27;82.60;94765.06;4158476;28;20426;-54
2022/11/30 01:14:45;;;;;;;8.60;5.60;;;;;;;4.26;83.17;94769.44;4160263;28;20060;-56
2022/11/30 01:16:47;;;;;;;7.90;5.65;;;;;;;4.29;83.13;94776.16;4146748;28;20358;-53
2022/11/30 01:18:56;;;;;;;6.78;5.00;;;;;;;4.23;82.82;94771.44;4153877;28;20040;-52
2022/11/30 01:20:58;;;;;;;9.07;5.13;;;;;;;4.24;83.13;94762.72;4176575;28;20131;-53
2022/11/30 01:22:59;;;;;;;6.90;4.95;;;;;;;4.16;83.07;94771.09;4168941;28;20077;-53
2022/11/30 01:25:01;;;;;;;8.52;4.97;;;;;;;4.23;83.28;94771.44;4172234;28;20408;-52
2022/11/30 01:27:03;;;;;;;8.65;5.22;;;;;;;4.33;83.15;94762.00;4163633;28;20045;-51
2022/11/30 01:29:05;;;;;;;6.70;4.53;;;;;;;4.23;82.16;94764.47;4173998;28;20048;-51
2022/11/30 01:31:08;;;;;;;6.07;4.55;;;;;;;4.27;82.72;94767.66;4174348;28;20103;-52
2022/11/30 01:33:10;;;;;;;8.52;4.50;;;;;;;4.34;82.54;94765.41;4171800;28;20054;-54
2022/11/30 01:35:12;;;;;;;5.65;4.18;;;;;;;4.39;82.08;94769.31;4172602;28;20202;-51
2022/11/30 01:37:13;;;;;;;5.78;4.40;;;;;;;4.45;82.52;94761.06;4170058;28;20556;-57
2022/11/30 01:39:15;;;;;;;6.88;4.60;;;;;;;4.50;81.40;94760.69;4163984;28;20056;-60
2022/11/30 01:41:20;;;;;;;6.93;4.45;;;;;;;4.53;81.78;94767.41;4169805;28;20500;-53
2022/11/30 01:43:55;;;;;;;5.32;3.85;;;;;;;4.61;81.63;94770.22;4151003;28;20388;-55
2022/11/30 01:45:57;;;;;;;5.10;3.33;;;;;;;4.73;81.22;94769.22;4147214;28;20061;-54
2022/11/30 01:47:59;;;;;;;7.28;3.55;;;;;;;4.78;81.02;94769.69;4147307;28;20125;-57
2022/11/30 01:50:19;;;;;;;5.20;3.22;;;;;;;4.77;80.11;94772.41;4162482;28;20280;-53
2022/11/30 01:52:26;;;;;;;5.18;3.08;;;;;;;4.82;80.34;94772.84;4151633;28;20045;-58
2022/11/30 01:54:35;;;;;;;4.78;3.47;;;;;;;4.82;80.21;94768.50;4161481;28;20140;-52
2022/11/30 01:56:42;;;;;;;5.75;3.90;;;;;;;4.84;80.40;94764.03;4167439;28;20053;-58
2022/11/30 01:58:44;;;;;;;4.80;3.83;;;;;;;4.86;79.88;94761.28;4166934;28;20489;-58
2022/11/30 02:00:47;;;;;;;6.22;4.22;;;;;;;4.87;80.27;94749.97;4166787;28;20042;-56
2022/11/30 02:02:57;;;;;;;5.93;3.97;;;;;;;4.88;80.06;94749.84;4165666;28;20053;-56
2022/11/30 02:04:59;;;;;;;5.35;4.07;;;;;;;4.92;80.04;94745.22;4177986;28;20103;-53
2022/11/30 02:07:02;;;;;;;6.63;4.20;;;;;;;4.93;80.44;94744.28;4178634;28;20131;-57
2022/11/30 02:09:04;;;;;;;4.88;4.30;;;;;;;4.99;80.50;94740.38;4176073;28;20413;-57
2022/11/30 02:11:12;;;;;;;7.57;4.80;;;;;;;5.05;79.99;94745.06;4169284;28;20057;-57
2022/11/30 02:13:23;;;;;;;8.05;4.70;;;;;;;5.09;80.19;94738.69;4176494;28;20494;-55
2022/11/30 02:15:28;;;;;;;10.45;4.93;;;;;;;5.13;79.66;94737.47;4177305;28;20060;-55
2022/11/30 02:17:45;;;;;;;5.72;4.78;;;;;;;5.12;79.34;94733.25;4176530;28;20041;-54
2022/11/30 02:19:57;;;;;;;6.47;4.93;;;;;;;5.16;79.66;94729.44;4179072;28;20045;-55
2022/11/30 02:22:36;;;;;;;6.70;4.55;;;;;;;5.17;80.23;94736.28;4178563;28;20050;-53
2022/11/30 02:24:56;;;;;;;6.75;5.03;;;;;;;5.17;79.26;94732.88;4168951;28;20141;-53
2022/11/30 02:27:07;;;;;;;7.13;4.35;;;;;;;5.10;79.24;94735.16;4153906;28;20412;-51
2022/11/30 02:29:28;;;;;;;6.40;4.47;;;;;;;5.09;79.64;94736.06;4178030;28;20140;-53
2022/11/30 02:31:48;;;;;;;6.15;4.40;;;;;;;5.12;80.01;94738.44;4175825;28;20057;-54
2022/11/30 02:33:51;;;;;;;7.03;4.25;;;;;;;5.09;79.94;94730.88;4158286;28;20350;-52
2022/11/30 02:35:54;;;;;;;4.90;4.07;;;;;;;5.10;80.02;94740.34;4162204;28;20125;-50
2022/11/30 02:37:57;;;;;;;6.18;4.07;;;;;;;5.09;79.53;94733.47;4158934;28;20041;-54
2022/11/30 02:39:58;;;;;;;5.60;3.72;;;;;;;5.08;79.90;94724.06;4169825;28;20063;-53
2022/11/30 02:42:00;;;;;;;4.22;3.50;;;;;;;5.00;79.92;94729.03;4166565;28;20149;-50
2022/11/30 02:44:03;;;;;;;8.30;3.40;;;;;;;4.94;80.18;94727.75;4173267;28;20060;-49
2022/11/30 02:46:10;;;;;;;4.47;3.27;;;;;;;4.99;80.05;94722.19;4173289;28;20054;-52
2022/11/30 02:48:15;;;;;;;5.57;3.90;;;;;;;5.01;79.86;94722.88;4168331;28;20079;-49
2022/11/30 02:50:32;;;;;;;6.03;3.83;;;;;;;5.01;79.62;94721.13;4153959;28;20136;-52
2022/11/30 02:52:34;;;;;;;4.30;3.45;;;;;;;5.01;80.33;94722.88;4175048;28;20049;-54
2022/11/30 02:54:36;;;;;;;4.50;3.55;;;;;;;4.85;79.76;94724.13;4145920;28;20169;-52
2022/11/30 02:56:38;;;;;;;4.40;3.25;;;;;;;4.80;80.37;94728.88;4149814;28;20041;-53
2022/11/30 02:58:40;;;;;;;4.35;2.97;;;;;;;4.84;80.59;94727.69;4169438;28;20134;-53
2022/11/30 03:00:41;;;;;;;4.80;2.83;;;;;;;4.82;81.18;94732.19;4168092;28;20045;-51
2022/11/30 03:02:43;;;;;;;4.55;3.70;;;;;;;4.82;80.53;94736.53;4157490;28;20474;-53
2022/11/30 03:04:45;;;;;;;5.30;3.45;;;;;;;4.87;81.29;94740.41;4156282;28;20088;-53
2022/11/30 03:06:47;;;;;;;4.75;3.30;;;;;;;4.96;81.28;94733.66;4163420;28;20542;-51
2022/11/30 03:08:48;;;;;;;4.43;3.20;;;;;;;4.99;80.79;94730.81;4162635;28;20751;-54
2022/11/30 03:10:50;;;;;;;7.35;3.45;;;;;;;5.07;79.97;94731.00;4162680;28;20522;-52
2022/11/30 03:12:52;;;;;;;5.07;3.33;;;;;;;5.11;80.44;94732.41;4166100;28;20167;-54
2022/11/30 03:14:53;;;;;;;5.10;3.20;;;;;;;5.15;80.39;94733.00;4174913;28;20126;-54
2022/11/30 03:16:56;;;;;;;3.97;3.28;;;;;;;5.18;80.24;94734.50;4170382;28;20115;-49
2022/11/30 03:18:57;;;;;;;3.55;2.97;;;;;;;5.27;79.68;94733.75;4164210;28;20081;-50
2022/11/30 03:20:59;;;;;;;4.93;3.30;;;;;;;5.29;79.06;94731.84;4160535;28;20071;-53
2022/11/30 03:23:01;;;;;;;4.78;3.40;;;;;;;5.25;79.81;94733.88;4174882;28;20049;-53
2022/11/30 03:25:03;;;;;;;5.03;3.03;;;;;;;5.22;79.16;94734.13;4157573;28;20054;-51
2022/11/30 03:27:05;;;;;;;3.17;2.88;;;;;;;5.23;79.90;94734.97;4165794;28;20045;-54
2022/11/30 03:29:07;;;;;;;3.85;3.08;;;;;;;5.18;79.17;94731.91;4160537;28;20045;-52
2022/11/30 03:31:12;;;;;;;5.97;3.10;;;;;;;5.22;80.01;94730.72;4163158;28;20061;-54
2022/11/30 03:33:13;;;;;;;3.55;2.97;;;;;;;5.22;79.85;94734.13;4171171;28;20067;-53
2022/11/30 03:35:15;;;;;;;3.65;2.78;;;;;;;5.24;79.58;94732.22;4171593;28;20055;-53
2022/11/30 03:37:17;;;;;;;4.25;2.83;;;;;;;5.26;79.33;94730.31;4158461;28;20049;-49
2022/11/30 03:39:18;;;;;;;4.22;2.88;;;;;;;5.25;80.15;94730.47;4165250;28;20053;-54
2022/11/30 03:41:20;;;;;;;3.33;2.63;;;;;;;5.28;79.53;94730.22;4168036;28;20060;-54
2022/11/30 03:43:22;;;;;;;6.75;2.72;;;;;;;5.28;79.96;94727.63;4160796;28;20060;-54
2022/11/30 03:45:23;;;;;;;4.05;2.47;;;;;;;5.29;80.10;94735.28;4169106;28;20053;-53
2022/11/30 03:47:25;;;;;;;2.80;2.30;;;;;;;5.24;79.95;94737.41;4171893;28;20069;-49
2022/11/30 03:49:27;;;;;;;3.35;2.50;;;;;;;5.24;79.71;94737.41;4168696;28;20381;-49
2022/11/30 03:51:28;;;;;;;2.75;2.20;;;;;;;5.24;80.04;94742.63;4167084;28;20053;-48
2022/11/30 03:53:30;;;;;;;3.00;2.15;;;;;;;5.22;79.89;94739.31;4152804;28;20057;-52
2022/11/30 03:55:33;;;;;;;3.22;2.10;;;;;;;5.25;79.99;94739.09;4170156;28;20056;-55
2022/11/30 03:57:35;;;;;;;3.33;2.40;;;;;;;5.22;80.01;94734.13;4177213;28;20707;-52
2022/11/30 03:59:36;;;;;;;2.70;2.30;;;;;;;5.22;80.26;94744.50;4178184;28;20049;-51
2022/11/30 04:01:39;;;;;;;3.85;2.42;;;;;;;5.22;79.90;94733.31;4177362;28;20049;-53
2022/11/30 04:03:42;;;;;;;3.58;2.33;;;;;;;5.15;80.67;94733.00;4177385;28;20079;-51
2022/11/30 04:05:46;;;;;;;3.20;2.33;;;;;;;5.18;80.39;94737.09;4163125;28;20056;-49
2022/11/30 04:07:47;;;;;;;3.47;2.50;;;;;;;5.21;80.27;94737.69;4177493;28;20084;-53
2022/11/30 04:09:49;;;;;;;4.72;2.50;;;;;;;5.17;80.90;94735.47;4177817;28;20079;-56
2022/11/30 04:11:51;;;;;;;4.13;2.58;;;;;;;5.11;80.85;94737.59;4153099;28;20058;-52
2022/11/30 04:13:52;;;;;;;4.05;3.13;;;;;;;4.98;80.78;94736.94;4172999;28;20045;-54
2022/11/30 04:15:54;;;;;;;4.22;2.55;;;;;;;4.89;81.01;94741.13;4168280;28;20045;-53
2022/11/30 04:17:56;;;;;;;3.58;2.50;;;;;;;4.88;81.01;94746.41;4176926;28;20045;-52
2022/11/30 04:19:58;;;;;;;3.95;2.38;;;;;;;4.90;81.41;94742.78;4162035;28;20129;-52
2022/11/30 04:21:59;;;;;;;5.43;2.60;;;;;;;4.86;82.06;94749.16;4149181;28;20414;-53
2022/11/30 04:24:01;;;;;;;3.10;2.40;;;;;;;4.96;81.39;94751.00;4152999;28;20057;-51
2022/11/30 04:26:05;;;;;;;3.17;2.20;;;;;;;4.87;81.34;94757.75;4167664;28;20473;-52
2022/11/30 04:28:07;;;;;;;2.80;2.17;;;;;;;4.84;81.35;94764.03;4172407;28;20044;-53
2022/11/30 04:30:10;;;;;;;3.08;2.38;;;;;;;4.79;81.94;94762.72;4155323;28;20088;-52
2022/11/30 04:32:11;;;;;;;4.35;2.55;;;;;;;4.76;82.35;94760.41;4176731;28;20061;-52
2022/11/30 04:34:13;;;;;;;2.83;2.35;;;;;;;4.78;82.24;94754.13;4177214;28;20052;-52
2022/11/30 04:36:18;;;;;;;4.32;2.90;;;;;;;4.71;81.60;94755.53;4176577;28;20160;-50
2022/11/30 04:38:20;;;;;;;2.85;2.33;;;;;;;4.78;81.79;94758.50;4172144;28;20111;-52
2022/11/30 04:40:21;;;;;;;2.80;2.50;;;;;;;4.72;81.86;94752.84;4176781;28;20079;-53
2022/11/30 04:42:23;;;;;;;3.38;2.70;;;;;;;4.68;81.98;94753.22;4164039;28;20176;-51
2022/11/30 04:44:25;;;;;;;2.90;2.58;;;;;;;4.60;82.72;94750.38;4175928;28;20071;-49
2022/11/30 04:46:26;;;;;;;3.50;2.70;;;;;;;4.63;82.19;94756.16;4176574;28;20136;-54
2022/11/30 04:48:28;;;;;;;3.50;2.67;;;;;;;4.66;82.74;94757.69;4176316;28;20476;-50
2022/11/30 04:50:30;;;;;;;4.68;2.90;;;;;;;4.68;82.51;94758.41;4162676;28;20065;-47
2022/11/30 04:52:33;;;;;;;4.10;3.00;;;;;;;4.71;82.32;94761.59;4160490;28;20164;-53
2022/11/30 04:54:34;;;;;;;4.68;2.85;;;;;;;4.72;82.10;94759.81;4165002;28;20049;-54
2022/11/30 04:56:36;;;;;;;5.10;2.80;;;;;;;4.64;81.94;94759.59;4172748;28;20084;-56
2022/11/30 04:58:38;;;;;;;3.83;3.03;;;;;;;4.67;82.52;94759.34;4155855;28;20613;-51
2022/11/30 05:00:40;;;;;;;4.32;2.90;;;;;;;4.72;82.78;94762.41;4166192;28;20153;-50
2022/11/30 05:02:42;;;;;;;3.35;2.55;;;;;;;4.78;83.03;94759.31;4172376;28;20052;-51
2022/11/30 05:04:51;;;;;;;3.50;2.90;;;;;;;4.78;82.02;94755.91;4171589;28;20155;-53
2022/11/30 05:06:52;;;;;;;3.85;2.35;;;;;;;4.81;81.79;94759.06;4165481;28;20062;-53
2022/11/30 05:08:54;;;;;;;4.53;3.05;;;;;;;4.81;82.28;94763.44;4150550;28;20041;-54
2022/11/30 05:10:56;;;;;;;3.60;2.60;;;;;;;4.76;81.83;94755.22;4162763;28;20451;-51
2022/11/30 05:12:57;;;;;;;3.95;3.10;;;;;;;4.77;82.52;94757.66;4156188;28;20520;-53
2022/11/30 05:14:59;;;;;;;4.05;2.80;;;;;;;4.75;81.91;94756.94;4162804;28;20620;-52
2022/11/30 05:17:00;;;;;;;3.55;2.72;;;;;;;4.77;81.80;94762.84;4173251;28;20087;-52
2022/11/30 05:19:02;;;;;;;3.13;2.67;;;;;;;4.78;82.21;94761.09;4168777;28;20049;-54
2022/11/30 05:21:04;;;;;;;3.80;2.85;;;;;;;4.81;82.26;94773.81;4161897;28;20492;-53
2022/11/30 05:23:06;;;;;;;3.60;2.88;;;;;;;4.88;82.00;94770.63;4167268;28;20060;-54
2022/11/30 05:25:08;;;;;;;4.32;2.83;;;;;;;4.99;82.50;94768.91;4171228;28;20084;-55
2022/11/30 05:27:10;;;;;;;4.93;2.72;;;;;;;5.04;81.83;94766.78;4167752;28;20049;-52
2022/11/30 05:29:19;;;;;;;5.72;3.13;;;;;;;5.01;81.86;94770.47;4164823;28;20478;-53
2022/11/30 05:31:21;;;;;;;6.13;3.08;;;;;;;5.03;81.93;94759.94;4170396;28;20100;-52
2022/11/30 05:33:23;;;;;;;3.83;2.75;;;;;;;5.06;81.89;94759.72;4170883;28;20064;-52
2022/11/30 05:35:25;;;;;;;4.88;2.70;;;;;;;4.98;81.44;94762.91;4161391;28;20130;-52
2022/11/30 05:37:27;;;;;;;4.25;3.10;;;;;;;4.99;81.53;94766.31;4172712;28;20051;-53
2022/11/30 05:39:28;;;;;;;4.22;3.03;;;;;;;5.03;82.01;94776.34;4150715;28;20049;-51
2022/11/30 05:41:30;;;;;;;4.78;2.70;;;;;;;4.93;81.83;94773.66;4163533;28;20049;-52
2022/11/30 05:43:32;;;;;;;5.72;2.53;;;;;;;4.94;82.01;94774.50;4173401;28;20103;-56
2022/11/30 05:45:33;;;;;;;3.33;2.08;;;;;;;4.85;81.74;94773.44;4179074;28;20058;-54
2022/11/30 05:47:35;;;;;;;4.05;2.10;;;;;;;4.76;81.47;94778.56;4179898;28;20140;-52
2022/11/30 05:49:37;;;;;;;4.95;2.72;;;;;;;4.70;81.51;94779.88;4172181;28;20374;-55
2022/11/30 05:51:39;;;;;;;4.45;2.80;;;;;;;4.61;81.89;94775.41;4167827;28;20053;-52
2022/11/30 05:53:41;;;;;;;5.18;2.97;;;;;;;4.57;81.75;94779.19;4153256;28;20057;-53
2022/11/30 05:55:43;;;;;;;4.28;2.42;;;;;;;4.48;82.69;94781.56;4162412;28;20131;-53
2022/11/30 05:57:45;;;;;;;5.63;2.25;;;;;;;4.48;82.71;94776.38;4147616;28;20085;-50
2022/11/30 05:59:47;;;;;;;3.45;2.28;;;;;;;4.51;82.53;94788.25;4154810;28;20122;-53
2022/11/30 06:01:50;;;;;;;2.80;2.13;;;;;;;4.53;82.66;94781.19;4152164;28;20064;-53
2022/11/30 06:03:53;;;;;;;4.25;2.20;;;;;;;4.59;82.48;94782.47;4149116;28;20060;-50
2022/11/30 06:05:54;;;;;;;4.22;2.50;;;;;;;4.61;82.93;94781.41;4147616;28;20176;-49
2022/11/30 06:07:58;;;;;;;4.57;2.90;;;;;;;4.65;81.95;94792.38;4147422;28;20422;-56
2022/11/30 06:10:00;;;;;;;5.05;2.45;;;;;;;4.70;82.41;94787.66;4159352;28;20111;-51
2022/11/30 06:12:01;;;;;;;3.22;2.05;;;;;;;4.74;81.52;94796.84;4161689;28;20041;-54
2022/11/30 06:14:03;;;;;;;5.68;2.45;;;;;;;4.81;81.36;94797.19;4161880;28;20697;-53
2022/11/30 06:16:05;;;;;;;3.15;2.30;;;;;;;4.87;81.80;94796.69;4162127;28;20053;-49
2022/11/30 06:18:08;;;;;;;3.38;2.42;;;;;;;4.95;81.63;94804.72;4159358;28;20053;-51
2022/11/30 06:20:11;;;;;;;4.30;2.70;;;;;;;5.04;81.07;94803.97;4148652;28;20123;-51
2022/11/30 06:22:12;;;;;;;3.63;2.55;;;;;;;5.05;80.55;94807.38;4146405;28;20127;-52
2022/11/30 06:24:14;;;;;;;4.30;2.28;;;;;;;5.07;80.78;94803.69;4147157;28;20049;-54
2022/11/30 06:26:15;;;;;;;3.80;2.58;;;;;;;5.07;80.34;94805.50;4148324;28;20058;-56
2022/11/30 06:28:17;;;;;;;4.93;2.42;;;;;;;5.06;80.69;94796.06;4149284;28;20037;-53
2022/11/30 06:30:19;;;;;;;4.80;2.60;;;;;;;5.01;80.25;94799.03;4154418;28;20099;-49
2022/11/30 06:32:21;;;;;;;3.67;2.30;;;;;;;4.97;80.02;94796.78;4157210;28;20053;-54
2022/11/30 06:34:22;;;;;;;4.30;2.53;;;;;;;4.97;80.87;94796.78;4149687;28;20133;-55
2022/11/30 06:36:24;;;;;;;4.45;2.00;;;;;;;5.02;80.83;94799.84;4146559;28;20061;-54
2022/11/30 06:38:33;;;;;;;2.47;2.03;;;;;;;5.00;80.43;94801.75;4147313;28;20053;-58
2022/11/30 06:40:35;;;;;;;3.47;2.10;;;;;;;5.02;80.19;94802.44;4163197;28;20076;-53
2022/11/30 06:42:37;;;;;;;2.15;1.92;;;;;;;5.03;79.88;94809.28;4158065;28;20410;-52
2022/11/30 06:44:39;;;;;;;3.47;1.83;;;;;;;5.01;80.18;94814.59;4145044;28;20192;-56
2022/11/30 06:46:41;;;;;;;3.97;1.90;;;;;;;4.99;79.01;94811.31;4155020;28;20107;-52
2022/11/30 06:48:42;;;;;;;3.20;1.98;;;;;;;5.01;79.03;94816.34;4149493;28;20042;-55
2022/11/30 06:50:44;;;;;;;3.47;2.20;;;;;;;4.82;79.32;94819.59;4158079;28;20427;-53
2022/11/30 06:52:50;;;;;;;5.40;2.53;;;;;;;4.82;79.90;94815.25;4148149;28;20045;-54
2022/11/30 06:54:52;;;;;;;4.43;2.65;;;;;;;4.85;80.07;94809.78;4164089;28;20041;-54
2022/11/30 06:56:55;;;;;;;3.30;2.10;;;;;;;4.90;80.51;94805.06;4172082;28;20052;-56
2022/11/30 06:58:57;;;;;;;3.75;2.42;;;;;;;4.95;80.45;94804.72;4165738;28;20042;-56
2022/11/30 07:00:59;;;;;;;3.88;2.40;;;;;;;4.95;79.86;94814.25;4172786;28;20049;-55
2022/11/30 07:03:01;;;;;;;4.30;2.42;;;;;;;5.01;79.96;94812.00;4173494;28;20049;-54
2022/11/30 07:05:03;;;;;;;4.50;2.65;;;;;;;5.05;79.28;94812.56;4165199;28;20056;-55
2022/11/30 07:07:06;;;;;;;5.18;2.10;;;;;;;5.01;78.93;94806.81;4166536;28;20062;-55
2022/11/30 07:09:09;;;;;;;4.43;2.95;;;;;;;5.04;79.71;94816.13;4169643;28;20056;-54
2022/11/30 07:11:11;;;;;;;3.63;2.17;;;;;;;4.95;79.83;94812.50;4116544;28;1137679;-56
2022/11/30 07:13:15;;;;;;;4.00;2.65;;;;;;;4.93;79.74;94817.81;4166267;28;20263;-54
2022/11/30 07:15:17;;;;;;;4.07;2.15;;;;;;;5.03;79.71;94822.25;4173775;28;20431;-53
2022/11/30 07:17:19;;;;;;;4.40;2.58;;;;;;;4.91;79.78;94819.69;4167171;28;20046;-53
2022/11/30 07:19:20;;;;;;;5.25;2.53;;;;;;;4.86;79.49;94816.66;4167047;28;20037;-56
2022/11/30 07:21:22;;;;;;;3.22;2.50;;;;;;;4.88;80.16;94813.91;4171317;28;20077;-55
2022/11/30 07:26:05;;;;;;;5.63;3.55;;;;;;;5.06;79.93;94824.63;4169053;28;20075;-55
2022/11/30 07:28:07;;;;;;;6.22;3.30;;;;;;;5.15;79.70;94826.47;4168488;28;20097;-54
2022/11/30 07:30:09;;;;;;;4.50;3.05;;;;;;;4.84;79.24;94821.13;4169939;28;20132;-54
2022/11/30 07:32:11;;;;;;;3.75;2.67;;;;;;;4.92;79.88;94821.31;4172879;28;20060;-54
2022/11/30 07:34:13;;;;;;;4.78;2.80;;;;;;;4.86;79.23;94826.19;4167095;28;20053;-56
2022/11/30 07:36:16;;;;;;;5.00;3.00;;;;;;;4.70;79.94;94827.38;4166259;28;20075;-55
2022/11/30 07:38:18;;;;;;;4.70;2.80;;;;;;;4.67;80.57;94821.63;4166508;28;20122;-55
2022/11/30 07:40:19;;;;;;;4.43;2.97;;;;;;;4.77;80.49;94817.34;4171761;28;20436;-57
2022/11/30 07:42:21;;;;;;;4.72;3.53;;;;;;;4.81;79.42;94818.75;4163949;28;20049;-58
2022/11/30 07:44:23;;;;;;;6.47;3.53;;;;;;;4.76;79.59;94812.31;4164916;28;20128;-53
2022/11/30 07:46:25;;;;;;;4.93;3.58;;;;;;;4.86;79.83;94815.81;4177281;28;20079;-55
2022/11/30 07:48:27;;;;;;;7.22;3.70;;;;;;;4.85;79.08;94809.78;4177133;28;20045;-53
2022/11/30 07:50:28;;;;;;;5.18;3.35;;;;;;;4.96;80.15;94808.94;4177060;28;20084;-53
2022/11/30 07:52:30;;;;;;;6.68;3.65;;;;;;;5.04;79.25;94813.53;4163428;28;20049;-52
2022/11/30 07:54:32;;;;;;;7.05;4.15;;;;;;;5.09;79.63;94812.19;4153178;28;20053;-55
2022/11/30 07:56:33;;;;;;;5.07;3.67;;;;;;;5.16;79.06;94811.72;4178005;28;20477;-54
2022/11/30 07:58:36;;;;;;;5.35;3.13;;;;;;;5.12;79.10;94808.56;4176862;28;20132;-55
2022/11/30 08:00:37;;;;;;;4.97;3.00;;;;;;;5.07;78.53;94808.09;4176949;28;20076;-54
2022/11/30 08:02:39;;;;;;;5.75;2.78;;;;;;;5.17;78.58;94814.19;4177593;28;20611;-55
2022/11/30 08:04:41;;;;;;;5.72;3.13;;;;;;;5.21;78.71;94805.22;4177592;28;20068;-55
2022/11/30 08:06:43;;;;;;;3.90;2.67;;;;;;;5.24;78.65;94810.16;4154462;28;20193;-51
2022/11/30 08:08:45;;;;;;;4.65;2.40;;;;;;;5.22;78.30;94800.84;4146799;28;20046;-54
2022/11/30 08:10:47;;;;;;;5.28;2.63;;;;;;;5.26;78.37;94800.47;4159169;28;20069;-54
2022/11/30 08:12:49;;;;;;;4.80;2.90;;;;;;;5.36;78.32;94807.53;4169667;28;20065;-56
2022/11/30 08:14:51;;;;;;;6.07;3.08;;;;;;;5.38;78.49;94800.41;4177452;28;20389;-57
2022/11/30 08:17:12;;;;;;;4.20;2.47;;;;;;;5.36;77.94;94807.53;4178170;28;20060;-53
2022/11/30 08:19:14;;;;;;;6.43;2.60;;;;;;;5.43;78.01;94803.47;4178872;28;20080;-54
2022/11/30 08:21:18;;;;;;;5.65;2.40;;;;;;;5.45;77.28;94806.78;4180257;28;20103;-54
2022/11/30 08:23:20;;;;;;;3.42;1.98;;;;;;;5.38;77.29;94811.66;4165858;28;20068;-53
2022/11/30 08:25:21;;;;;;;4.07;2.35;;;;;;;5.34;77.60;94811.06;4180465;28;20055;-55
2022/11/30 08:27:23;;;;;;;4.07;2.00;;;;;;;5.33;77.31;94813.78;4179821;28;20580;-52
2022/11/30 08:29:25;;;;;;;5.05;2.50;;;;;;;5.40;77.54;94809.75;4176299;28;20048;-53
2022/11/30 08:31:29;;;;;;;7.00;3.90;;;;;;;5.27;77.81;94811.66;4177441;28;20441;-49
2022/11/30 08:33:32;;;;;;;4.45;2.28;;;;;;;5.18;77.72;94809.81;4177397;28;20049;-56
2022/11/30 08:35:34;;;;;;;3.05;1.77;;;;;;;5.19;78.17;94821.88;4177665;28;20040;-55
2022/11/30 08:37:36;;;;;;;3.38;2.00;;;;;;;5.22;78.20;94822.44;4175837;28;20152;-54
2022/11/30 08:39:38;;;;;;;3.50;2.28;;;;;;;5.27;77.56;94812.50;4177637;28;20724;-52
2022/11/30 08:41:40;;;;;;;2.83;1.73;;;;;;;5.20;78.16;94823.50;4168749;28;20369;-54
2022/11/30 08:43:42;;;;;;;3.35;1.85;;;;;;;5.19;78.07;94824.47;4162891;28;20118;-52
2022/11/30 08:45:43;;;;;;;3.63;2.03;;;;;;;5.24;77.96;94820.53;4171793;28;20497;-52
2022/11/30 08:47:46;;;;;;;3.30;1.83;;;;;;;5.30;77.64;94808.84;4173017;28;20112;-50
2022/11/30 08:49:47;;;;;;;3.25;1.58;;;;;;;5.27;77.48;94809.06;4167709;28;20183;-53
2022/11/30 08:51:50;;;;;;;5.53;2.17;;;;;;;5.21;77.57;94812.19;4161918;28;20095;-52
2022/11/30 08:54:12;;;;;;;3.28;1.58;;;;;;;5.16;77.08;94815.13;4155176;28;20049;-52
2022/11/30 08:56:17;;;;;;;3.90;1.75;;;;;;;5.24;77.74;94814.53;4153315;28;20494;-56
2022/11/30 08:58:18;;;;;;;5.20;1.85;;;;;;;5.35;77.45;94811.88;4152771;28;20072;-51
2022/11/30 09:00:20;;;;;;;3.15;1.75;;;;;;;5.41;77.03;94810.56;4159565;28;20053;-53
2022/11/30 09:02:22;;;;;;;2.83;1.90;;;;;;;5.36;76.84;94816.13;4157011;28;20155;-53
2022/11/30 09:04:24;;;;;;;3.33;2.03;;;;;;;5.34;76.72;94808.47;4158991;28;20046;-54
2022/11/30 09:06:28;;;;;;;2.88;1.70;;;;;;;5.29;77.21;94809.78;4155497;28;20074;-54
2022/11/30 09:08:31;;;;;;;3.28;1.60;;;;;;;5.24;77.06;94811.94;4168390;28;20544;-52
2022/11/30 09:10:34;;;;;;;4.55;2.35;;;;;;;5.19;76.99;94812.31;4152535;28;20053;-51
2022/11/30 09:12:38;;;;;;;3.25;1.90;;;;;;;5.27;77.18;94812.50;4157214;28;20054;-52
2022/11/30 09:14:40;;;;;;;3.95;2.00;;;;;;;5.32;76.89;94820.75;4158739;28;20125;-52
2022/11/30 09:16:41;;;;;;;3.78;1.98;;;;;;;5.41;76.77;94810.56;4166963;28;20417;-52
2022/11/30 09:18:43;;;;;;;4.85;2.08;;;;;;;5.43;76.85;94811.25;4160456;28;20046;-55
2022/11/30 09:20:45;;;;;;;4.82;2.42;;;;;;;5.53;76.88;94819.97;4154236;28;20046;-51
2022/11/30 09:22:47;;;;;;;4.10;2.20;;;;;;;5.51;76.35;94817.47;4151043;28;20080;-55
2022/11/30 09:24:49;;;;;;;3.25;1.92;;;;;;;5.56;76.85;94819.69;4156711;28;20550;-51
2022/11/30 09:26:54;;;;;;;5.63;2.55;;;;;;;5.60;76.66;94818.50;4154126;28;20528;-53
2022/11/30 09:28:56;;;;;;;3.05;2.13;;;;;;;5.65;76.84;94823.31;4155583;28;20128;-55
2022/11/30 09:31:12;;;;;;;4.40;2.30;;;;;;;5.63;76.35;94830.41;4168468;28;20072;-55
2022/11/30 09:33:14;;;;;;;6.32;2.67;;;;;;;5.57;76.41;94831.75;4158852;28;20191;-51
2022/11/30 09:35:15;;;;;;;3.20;1.83;;;;;;;5.57;76.58;94836.13;4158162;28;20093;-53
2022/11/30 09:37:17;;;;;;;5.35;1.67;;;;;;;5.52;76.90;94834.72;4160804;28;20045;-53
2022/11/30 09:39:19;;;;;;;3.72;1.85;;;;;;;5.48;76.69;94837.69;4157150;28;20060;-53
2022/11/30 09:41:33;;;;;;;8.95;4.80;;;;;;;5.52;77.51;94834.72;4160638;28;20053;-52
2022/11/30 09:43:50;;;;;;;5.90;3.08;;;;;;;5.47;77.43;94839.47;4170572;28;20067;-55
2022/11/30 09:45:56;;;;;;;3.65;1.95;;;;;;;5.53;77.84;94840.75;4145978;28;20548;-55
2022/11/30 09:48:22;;;;;;;4.35;1.90;;;;;;;5.61;77.75;94840.94;4151083;28;20137;-53
2022/11/30 09:50:28;;;;;;;3.50;2.10;;;;;;;5.73;77.88;94842.53;4143566;28;20120;-53